リーブルヴィル の空港の天気 - METARとTAF

リーブルヴィル国際空港 ( FOOL / LBV ) - ガボン リーブルヴィル
飛行場実況気象(Metar)
観測時間01/19 12:00 WAT (01/19 11:00 UTC)
風向・風速南南西 3m/s
視程10km以上
天気現象
少しの雲 雲底高度 460m
気温30℃
湿度75%
気圧1012hPa
METARFOOL 191100Z 20006KT 180V240 9999 FEW015 30/25 Q1012 NOSIG
過去の天気等 Google飛行場航空写真 Wunderground天気予報

過去48時間のMETAR

飛行場予報(TAF)
発表時間: 1/19 06:00 WAT (1/19 05:00 UTC)
予報対象時間: 19日7時 WAT ~ 20日13時 WAT
風向・風速東南東 3m/s
視程8000m
全天の4割程度の雲 雲底高度 300m
19日16時 WAT ~ 19日22時 WAT に 確率 30% で一時的に
天気現象
全天の8割程度の雲 雲底高度 370m
少しの積乱雲 雲底高度 610m
TAF FOOL 190500Z 1906/2012 12006KT 8000 SCT010
PROB30 TEMPO 1915/1921 TS BKN012 FEW020CB